Time;durP1;ratioP1;P1;durP2;ratioP2;P2;SDS_P1;SDS_P2;PMS_P1;PMS_P2;Temp;Humidity;BMP_temperature;BMP_pressure;BME280_temperature;BME280_humidity;BME280_pressure;Samples;Min_cycle;Max_cycle;Signal;HPM_P1;HPM_P2
2021/11/25 00:01:38;;;;;;;0.20;0.20;;;4.50;92.20;3.10;101306.00;;;;31240420;28;20076;-77
2021/11/25 00:16:40;;;;;;;0.40;0.40;;;4.20;92.30;2.70;101297.00;;;;31294259;28;20045;-78
2021/11/25 00:31:41;;;;;;;0.30;0.30;;;3.90;92.30;2.40;101280.00;;;;31279186;28;20148;-76
2021/11/25 00:46:43;;;;;;;0.43;0.43;;;4.00;93.30;2.10;101257.00;;;;31266768;28;20049;-77
2021/11/25 01:01:45;;;;;;;0.30;0.30;;;3.50;92.80;2.00;101257.00;;;;31274236;28;20570;-77
2021/11/25 01:16:47;;;;;;;0.20;0.20;;;3.20;92.90;1.70;101266.00;;;;31268465;28;20133;-76
2021/11/25 01:31:49;;;;;;;0.30;0.30;;;3.20;93.00;1.60;101261.00;;;;31264626;28;20049;-76
2021/11/25 01:47:07;;;;;;;0.30;0.30;;;3.10;92.80;1.40;101241.00;;;;31300135;28;20663;-76
2021/11/25 02:02:10;;;;;;;0.60;0.60;;;3.90;93.00;1.30;101252.00;;;;31284015;28;20049;-75
2021/11/25 02:17:12;;;;;;;0.30;0.30;;;3.30;93.90;1.40;101236.00;;;;31257916;28;20507;-75
2021/11/25 02:32:35;;;;;;;0.38;0.38;;;2.90;93.50;1.40;101211.00;;;;31281223;28;20057;-76
2021/11/25 02:47:36;;;;;;;0.30;0.30;;;3.00;93.40;1.50;101196.00;;;;31254245;28;20049;-76
2021/11/25 03:02:40;;;;;;;0.30;0.30;;;2.90;94.10;1.40;101194.00;;;;31246917;28;20060;-76
2021/11/25 03:17:42;;;;;;;0.30;0.30;;;1.20;93.20;1.40;101161.00;;;;31264268;28;20152;-76
2021/11/25 03:32:43;;;;;;;0.40;0.40;;;2.80;96.00;1.30;101177.00;;;;31248798;28;20888;-75
2021/11/25 03:47:47;;;;;;;0.30;0.30;;;2.70;93.50;1.20;101144.00;;;;31248474;28;20059;-74
2021/11/25 04:02:51;;;;;;;0.30;0.30;;;2.70;93.40;1.50;101136.00;;;;31266659;28;20045;-74
2021/11/25 04:17:53;;;;;;;0.20;0.20;;;2.90;95.00;1.40;101125.00;;;;31242380;28;20092;-74
2021/11/25 04:48:17;;;;;;;0.30;0.30;;;3.20;94.70;1.80;101106.00;;;;31279701;28;20045;-73
2021/11/25 05:03:18;;;;;;;0.43;0.43;;;3.10;94.00;1.60;101108.00;;;;31272482;28;20404;-73
2021/11/25 05:18:20;;;;;;;0.30;0.30;;;3.20;94.30;1.90;101124.00;;;;31292368;28;20496;-74
2021/11/25 05:33:21;;;;;;;0.25;0.25;;;3.30;94.30;1.90;101132.00;;;;31297152;28;20139;-74
2021/11/25 05:48:23;;;;;;;0.30;0.30;;;3.50;94.50;2.00;101120.00;;;;31278949;28;20051;-74
2021/11/25 06:03:25;;;;;;;0.30;0.30;;;3.50;94.20;2.20;101127.00;;;;31289434;28;20484;-75
2021/11/25 06:18:26;;;;;;;0.30;0.30;;;3.60;94.00;2.30;101126.00;;;;31272818;28;20041;-75
2021/11/25 06:33:27;;;;;;;0.40;0.40;;;3.80;94.20;2.40;101099.00;;;;31253171;28;20128;-76
2021/11/25 06:48:30;;;;;;;0.32;0.32;;;3.70;94.00;2.30;101061.00;;;;31265022;28;20037;-76
2021/11/25 07:03:33;;;;;;;0.20;0.20;;;;;2.30;101045.00;;;;31281166;28;20059;-75
2021/11/25 07:28:20;;;;;;;0.30;0.30;;;3.60;94.00;2.20;101063.00;;;;31415640;27;21233;-77
2021/11/25 07:43:23;;;;;;;1.88;1.85;;;4.20;94.50;2.40;101062.00;;;;31185321;28;20405;-76
2021/11/25 07:59:00;;;;;;;0.30;0.30;;;5.90;94.80;2.50;101068.00;;;;31170476;28;20049;-78
2021/11/25 08:14:01;;;;;;;0.23;0.23;;;3.90;94.20;2.70;101085.00;;;;31208245;28;20045;-75
2021/11/25 08:29:02;;;;;;;0.30;0.30;;;4.20;93.90;2.90;101082.00;;;;31182497;28;20374;-77
2021/11/25 08:44:03;;;;;;;0.30;0.30;;;4.40;93.80;3.10;101078.00;;;;31118163;28;20053;-77
2021/11/25 08:59:05;;;;;;;0.30;0.30;;;4.40;93.70;3.20;101082.00;;;;31089259;28;20080;-77
2021/11/25 09:14:06;;;;;;;0.20;0.20;;;4.60;93.70;3.40;101068.00;;;;31168453;28;20061;-77
2021/11/25 09:29:10;;;;;;;0.20;0.20;;;4.30;93.40;3.60;101071.00;;;;31050194;28;20042;-78
2021/11/25 09:44:11;;;;;;;0.30;0.30;;;4.90;93.10;3.80;101079.00;;;;31140876;28;20050;-79
2021/11/25 09:59:13;;;;;;;0.80;0.80;;;5.00;92.90;3.90;101076.00;;;;31207336;28;20104;-76
2021/11/25 10:14:15;;;;;;;0.20;0.20;;;5.10;92.70;3.90;101076.00;;;;31034421;28;20520;-76
2021/11/25 10:29:22;;;;;;;0.20;0.20;;;5.20;92.90;4.00;101107.00;;;;31112883;28;20487;-76
2021/11/25 10:44:38;;;;;;;0.22;0.22;;;5.20;93.00;4.00;101067.00;;;;31040657;28;20045;-76
2021/11/25 10:59:48;;;;;;;0.30;0.30;;;5.30;93.20;4.00;101058.00;;;;31066087;28;20046;-74
2021/11/25 11:14:54;;;;;;;0.25;0.25;;;5.40;93.40;4.10;101057.00;;;;31047084;28;20802;-74
2021/11/25 11:30:01;;;;;;;;;;;6.00;94.00;4.40;101071.00;;;;31155732;28;20053;-75
2021/11/25 11:53:21;;;;;;;0.15;0.15;;;5.80;93.50;4.60;101061.00;;;;31550302;27;1615047;-76
2021/11/25 12:08:28;;;;;;;0.10;0.10;;;6.00;93.90;4.70;101055.00;;;;31480041;28;20064;-76
2021/11/25 12:23:41;;;;;;;0.20;0.20;;;6.00;93.50;4.90;101032.00;;;;31493362;28;20044;-76
2021/11/25 12:38:42;;;;;;;0.30;0.30;;;6.20;93.50;5.10;101026.00;;;;31509321;28;20483;-76
2021/11/25 12:53:55;;;;;;;0.20;0.20;;;6.40;93.70;5.30;101013.00;;;;31512565;28;20044;-76
2021/11/25 13:09:04;;;;;;;0.20;0.20;;;6.60;93.70;5.60;100984.00;;;;31502272;28;20078;-77
2021/11/25 13:24:23;;;;;;;0.30;0.30;;;7.00;93.60;5.90;100970.00;;;;31477123;28;20126;-77
2021/11/25 13:39:47;;;;;;;0.30;0.30;;;7.00;93.70;6.10;100961.00;;;;31455562;28;20056;-77
2021/11/25 13:54:50;;;;;;;0.38;0.38;;;7.20;93.90;6.10;100947.00;;;;31444987;28;20040;-77
2021/11/25 14:10:09;;;;;;;0.50;0.50;;;7.30;93.90;6.10;100939.00;;;;31481597;28;20040;-78
2021/11/25 14:25:45;;;;;;;0.20;0.20;;;7.20;94.30;6.00;100938.00;;;;31484064;28;20036;-78
2021/11/25 14:41:00;;;;;;;0.20;0.20;;;7.20;94.50;5.90;100947.00;;;;31387138;28;20118;-78
2021/11/25 14:56:06;;;;;;;0.20;0.20;;;7.10;94.90;5.60;100951.00;;;;31388807;28;20043;-78
2021/11/25 15:11:08;;;;;;;1.75;1.65;;;6.80;94.30;5.50;100934.00;;;;31375878;28;20415;-78
2021/11/25 15:26:11;;;;;;;0.50;0.50;;;6.70;94.50;5.40;100922.00;;;;31293362;28;20091;-78
2021/11/25 15:41:12;;;;;;;0.55;0.52;;;6.60;94.60;5.40;100917.00;;;;31340849;28;20192;-78
2021/11/25 15:56:13;;;;;;;0.20;0.20;;;6.60;94.70;5.30;100941.00;;;;31408866;28;20063;-78
2021/11/25 16:11:15;;;;;;;0.20;0.20;;;6.50;94.70;5.30;100939.00;;;;31360878;28;20055;-77
2021/11/25 16:26:19;;;;;;;0.20;0.20;;;6.60;95.20;5.30;100948.00;;;;31393698;28;20507;-77
2021/11/25 16:41:20;;;;;;;0.20;0.20;;;6.60;95.30;5.30;100965.00;;;;31422906;28;20052;-77
2021/11/25 16:56:22;;;;;;;0.22;0.22;;;6.50;95.10;5.20;100960.00;;;;31401285;28;20043;-77
2021/11/25 17:11:24;;;;;;;0.20;0.20;;;6.40;95.10;5.20;100965.00;;;;31475701;28;20098;-76
2021/11/25 17:26:26;;;;;;;0.20;0.20;;;6.40;95.70;5.10;100952.00;;;;31484011;28;20049;-77
2021/11/25 17:41:27;;;;;;;0.20;0.20;;;6.40;95.20;5.10;100943.00;;;;31480499;28;21245;-76
2021/11/25 17:56:30;;;;;;;0.30;0.30;;;6.80;95.20;4.90;100945.00;;;;31430059;28;20486;-76
2021/11/25 18:11:34;;;;;;;0.20;0.20;;;6.10;94.60;4.40;100929.00;;;;31370548;28;20044;-76
2021/11/25 18:26:38;;;;;;;0.30;0.30;;;5.50;93.60;4.00;100936.00;;;;31357076;28;20048;-76
2021/11/25 18:41:39;;;;;;;0.30;0.30;;;5.20;94.40;3.70;100937.00;;;;31364103;28;20814;-77
2021/11/25 18:56:40;;;;;;;0.20;0.20;;;4.90;94.60;3.50;100927.00;;;;31440397;28;20047;-77
2021/11/25 19:11:42;;;;;;;0.20;0.20;;;5.20;94.90;3.30;100916.00;;;;31443058;28;20055;-78
2021/11/25 19:26:43;;;;;;;0.20;0.20;;;4.60;94.40;3.20;100902.00;;;;31366424;28;20292;-78
2021/11/25 19:41:45;;;;;;;0.25;0.25;;;5.80;94.50;3.10;100896.00;;;;31322900;28;20161;-77
2021/11/25 19:56:48;;;;;;;0.28;0.28;;;4.50;94.50;3.00;100902.00;;;;31355173;28;20158;-78
2021/11/25 20:11:50;;;;;;;0.30;0.30;;;4.40;94.60;3.10;100886.00;;;;31346561;28;20047;-78
2021/11/25 20:26:51;;;;;;;0.20;0.20;;;4.50;94.70;3.10;100864.00;;;;31372527;28;20071;-78
2021/11/25 20:41:52;;;;;;;0.20;0.20;;;4.90;95.60;2.90;100865.00;;;;31315121;28;20548;-79
2021/11/25 20:56:54;;;;;;;0.30;0.30;;;4.30;95.20;2.90;100839.00;;;;31365533;28;20079;-79
2021/11/25 21:11:56;;;;;;;0.30;0.30;;;4.30;94.90;2.90;100821.00;;;;31367725;28;20136;-79
2021/11/25 21:26:59;;;;;;;0.50;0.50;;;4.10;94.80;2.70;100806.00;;;;31353879;28;20047;-79
2021/11/25 21:42:03;;;;;;;0.20;0.20;;;3.90;94.60;2.50;100790.00;;;;31371035;28;20049;-79
2021/11/25 21:57:04;;;;;;;0.30;0.30;;;3.80;94.60;2.20;100761.00;;;;31350878;28;20511;-79
2021/11/25 22:12:05;;;;;;;0.30;0.30;;;3.60;94.60;2.10;100733.00;;;;31330733;28;20442;-79
2021/11/25 22:27:07;;;;;;;9.80;6.53;;;3.40;94.60;1.90;100729.00;;;;31343163;28;20056;-78
2021/11/25 22:42:08;;;;;;;0.25;0.25;;;2.00;94.70;1.70;100695.00;;;;31343272;28;20109;-77
2021/11/25 22:57:10;;;;;;;0.20;0.20;;;3.10;94.60;1.60;100676.00;;;;31354446;28;20037;-77
2021/11/25 23:12:13;;;;;;;0.30;0.30;;;3.00;94.70;1.50;100676.00;;;;31391430;28;20044;-76
2021/11/25 23:27:16;;;;;;;0.25;0.25;;;2.90;94.90;1.40;100660.00;;;;31362022;28;20101;-77
2021/11/25 23:42:17;;;;;;;0.32;0.32;;;2.90;95.00;1.40;100639.00;;;;31400069;28;20053;-76
2021/11/25 23:57:21;;;;;;;0.35;0.35;;;2.90;95.10;1.40;100631.00;;;;31339351;28;20049;-76
